createdAt,value
2018-12-03T00:00:56.808Z,100.00
2018-12-03T00:03:27.830Z,100.00
2018-12-03T00:05:58.251Z,100.00
2018-12-03T00:08:28.759Z,100.00
2018-12-03T00:10:59.172Z,100.00
2018-12-03T00:13:29.567Z,100.00
2018-12-03T00:16:00.021Z,100.00
2018-12-03T00:18:30.320Z,100.00
2018-12-03T00:21:01.124Z,100.00
2018-12-03T00:23:31.571Z,100.00
2018-12-03T00:26:01.974Z,100.00
2018-12-03T00:28:32.514Z,100.00
2018-12-03T00:31:02.938Z,100.00
2018-12-03T00:33:33.450Z,100.00
2018-12-03T00:36:03.936Z,100.00
2018-12-03T00:41:55.050Z,100.00
2018-12-03T00:44:25.566Z,100.00
2018-12-03T00:46:55.978Z,100.00
2018-12-03T00:49:26.307Z,100.00
2018-12-03T00:51:56.693Z,100.00
2018-12-03T00:54:27.194Z,100.00
2018-12-03T00:56:57.590Z,100.00
2018-12-03T01:02:25.148Z,100.00
2018-12-03T01:04:56.241Z,100.00
2018-12-03T01:07:26.861Z,100.00
2018-12-03T01:09:57.465Z,100.00
2018-12-03T01:12:27.877Z,100.00
2018-12-03T01:14:58.291Z,100.00
2018-12-03T01:17:29.403Z,100.00
2018-12-03T01:19:59.725Z,100.00
2018-12-03T01:22:30.041Z,100.00
2018-12-03T01:25:00.357Z,100.00
2018-12-03T01:27:30.891Z,100.00
2018-12-03T01:30:01.224Z,100.00
2018-12-03T01:32:31.754Z,100.00
2018-12-03T01:35:02.067Z,100.00
2018-12-03T01:37:32.439Z,100.00
2018-12-03T01:40:02.863Z,100.00
2018-12-03T01:42:33.286Z,100.00
2018-12-03T01:45:03.891Z,100.00
2018-12-03T01:47:35.021Z,100.00
2018-12-03T01:50:07.230Z,100.00
2018-12-03T01:52:37.903Z,100.00
2018-12-03T01:55:12.707Z,100.00
2018-12-03T01:57:43.093Z,100.00
2018-12-03T02:00:17.855Z,100.00
2018-12-03T02:02:49.279Z,100.00
2018-12-03T02:05:19.706Z,100.00
2018-12-03T02:07:51.350Z,100.00
2018-12-03T02:10:22.074Z,100.00
2018-12-03T02:12:55.141Z,100.00
2018-12-03T02:15:25.870Z,100.00
2018-12-03T02:17:56.645Z,100.00
2018-12-03T02:20:27.354Z,100.00
2018-12-03T02:22:58.145Z,100.00
2018-12-03T02:25:28.964Z,100.00
2018-12-03T02:27:59.772Z,100.00
2018-12-03T02:30:30.572Z,100.00
2018-12-03T02:33:01.284Z,100.00
2018-12-03T02:35:32.084Z,100.00
2018-12-03T02:38:02.850Z,100.00
2018-12-03T02:40:33.714Z,100.00
2018-12-03T02:43:04.597Z,100.00
2018-12-03T02:45:35.313Z,100.00
2018-12-03T02:48:06.360Z,100.00
2018-12-03T02:50:37.098Z,100.00
2018-12-03T02:53:08.507Z,100.00
2018-12-03T02:55:39.231Z,100.00
2018-12-03T02:58:10.020Z,100.00
2018-12-03T03:00:42.563Z,100.00
2018-12-03T03:03:13.368Z,100.00
2018-12-03T03:05:44.330Z,100.00
2018-12-03T03:08:15.148Z,100.00
2018-12-03T03:10:45.959Z,100.00
2018-12-03T03:13:16.645Z,100.00
2018-12-03T03:15:47.349Z,100.00
2018-12-03T03:18:18.161Z,100.00
2018-12-03T03:20:48.875Z,100.00
2018-12-03T03:23:19.729Z,100.00
2018-12-03T03:25:50.764Z,100.00
2018-12-03T03:28:21.526Z,100.00
2018-12-03T03:30:52.326Z,100.00
2018-12-03T03:33:23.154Z,100.00
2018-12-03T03:35:53.954Z,100.00
2018-12-03T03:38:24.667Z,100.00
2018-12-03T03:40:55.417Z,100.00
2018-12-03T03:43:26.187Z,100.00
2018-12-03T03:45:56.888Z,100.00
2018-12-03T03:48:27.601Z,100.00
2018-12-03T03:50:58.388Z,100.00
2018-12-03T03:53:29.126Z,100.00
2018-12-03T03:55:59.907Z,100.00
2018-12-03T03:58:30.697Z,100.00
2018-12-03T04:01:01.549Z,100.00
2018-12-03T04:03:32.389Z,100.00
2018-12-03T04:06:03.307Z,100.00
2018-12-03T04:08:34.105Z,100.00
2018-12-03T04:11:04.820Z,100.00
2018-12-03T04:13:35.823Z,100.00
2018-12-03T04:16:06.784Z,100.00
2018-12-03T04:18:37.496Z,100.00
2018-12-03T04:21:08.312Z,100.00
2018-12-03T04:23:39.040Z,100.00
2018-12-03T04:26:09.956Z,100.00
2018-12-03T04:28:40.661Z,100.00
2018-12-03T04:31:11.323Z,100.00
2018-12-03T04:33:42.052Z,100.00
2018-12-03T04:36:13.065Z,100.00
2018-12-03T04:38:43.761Z,100.00
2018-12-03T04:41:14.852Z,100.00
2018-12-03T04:43:45.517Z,100.00
2018-12-03T04:46:16.191Z,100.00
2018-12-03T04:48:46.899Z,100.00
2018-12-03T04:51:17.621Z,100.00
2018-12-03T04:53:48.328Z,100.00
2018-12-03T04:56:19.011Z,100.00
2018-12-03T04:58:49.682Z,100.00
2018-12-03T05:01:20.571Z,100.00
2018-12-03T05:03:51.283Z,100.00
2018-12-03T05:06:22.002Z,100.00
2018-12-03T05:08:52.696Z,100.00
2018-12-03T05:11:23.360Z,100.00
2018-12-03T05:13:54.051Z,100.00
2018-12-03T05:16:24.778Z,100.00
2018-12-03T05:18:55.454Z,100.00
2018-12-03T05:21:26.113Z,100.00
2018-12-03T05:23:56.917Z,100.00
2018-12-03T05:26:27.589Z,100.00
2018-12-03T05:28:58.300Z,100.00
2018-12-03T05:31:28.964Z,100.00
2018-12-03T05:33:59.777Z,100.00
2018-12-03T05:36:30.833Z,100.00
2018-12-03T05:39:01.866Z,100.00
2018-12-03T05:41:32.549Z,100.00
2018-12-03T05:44:03.325Z,100.00
2018-12-03T05:46:34.864Z,100.00
2018-12-03T05:49:05.625Z,100.00
2018-12-03T05:51:36.336Z,100.00
2018-12-03T05:54:07.187Z,100.00
2018-12-03T05:56:37.942Z,100.00
2018-12-03T05:59:08.554Z,100.00
2018-12-03T06:01:39.317Z,100.00
2018-12-03T06:04:10.073Z,100.00
2018-12-03T06:06:40.763Z,100.00
2018-12-03T06:09:11.441Z,100.00
2018-12-03T06:11:42.150Z,100.00
2018-12-03T06:14:12.868Z,100.00
2018-12-03T06:16:43.640Z,100.00
2018-12-03T06:19:14.490Z,100.00
2018-12-03T06:21:47.182Z,100.00
2018-12-03T06:24:18.718Z,100.00
2018-12-03T06:26:49.450Z,100.00
2018-12-03T06:29:20.197Z,100.00
2018-12-03T06:31:50.905Z,100.00
2018-12-03T06:34:21.612Z,100.00
2018-12-03T06:36:52.314Z,100.00
2018-12-03T06:39:23.177Z,100.00
2018-12-03T06:41:53.800Z,100.00
2018-12-03T06:44:24.514Z,100.00
2018-12-03T06:46:55.194Z,100.00
2018-12-03T06:49:25.962Z,100.00
2018-12-03T06:51:56.759Z,100.00
2018-12-03T06:54:27.541Z,100.00
2018-12-03T06:56:58.380Z,100.00
2018-12-03T06:59:29.039Z,100.00
2018-12-03T07:01:59.716Z,100.00
2018-12-03T07:04:30.446Z,100.00
2018-12-03T07:07:01.136Z,100.00
2018-12-03T07:09:31.780Z,100.00
2018-12-03T07:12:02.492Z,100.00
2018-12-03T07:14:33.249Z,100.00
2018-12-03T07:17:03.983Z,100.00
2018-12-03T07:19:34.720Z,100.00
2018-12-03T07:22:05.477Z,100.00
2018-12-03T07:24:36.138Z,100.00
2018-12-03T07:27:07.004Z,100.00
2018-12-03T07:29:37.714Z,100.00
2018-12-03T07:32:08.434Z,100.00
2018-12-03T07:34:39.524Z,100.00
2018-12-03T07:37:10.203Z,100.00
2018-12-03T07:39:40.938Z,100.00
2018-12-03T07:42:11.757Z,100.00
2018-12-03T07:44:42.489Z,100.00
2018-12-03T07:47:13.259Z,100.00
2018-12-03T07:49:44.028Z,100.00
2018-12-03T07:52:14.738Z,100.00
2018-12-03T07:54:45.416Z,100.00
2018-12-03T07:57:16.204Z,100.00
2018-12-03T07:59:46.947Z,100.00
2018-12-03T08:02:17.658Z,100.00
2018-12-03T08:04:48.462Z,100.00
2018-12-03T08:07:19.243Z,100.00
2018-12-03T08:09:49.919Z,100.00
2018-12-03T08:12:20.601Z,100.00
2018-12-03T08:14:51.387Z,100.00
2018-12-03T08:17:22.159Z,100.00
2018-12-03T08:19:56.500Z,100.00
2018-12-03T08:22:25.396Z,100.00
2018-12-03T08:24:56.221Z,100.00
2018-12-03T08:27:27.221Z,100.00
2018-12-03T08:29:58.968Z,100.00
2018-12-03T08:32:29.705Z,100.00
2018-12-03T08:35:00.483Z,100.00
2018-12-03T08:37:31.208Z,100.00
2018-12-03T08:40:01.860Z,100.00
2018-12-03T08:42:32.554Z,100.00
2018-12-03T08:45:03.278Z,100.00
2018-12-03T08:47:34.001Z,100.00
2018-12-03T08:50:08.419Z,100.00
2018-12-03T08:52:39.209Z,100.00
2018-12-03T08:55:12.722Z,100.00
2018-12-03T08:57:43.494Z,100.00
2018-12-03T09:00:15.898Z,100.00
2018-12-03T09:03:06.758Z,100.00
2018-12-03T09:05:40.884Z,100.00
2018-12-03T09:08:12.777Z,99.71
2018-12-03T09:10:44.715Z,99.72
2018-12-03T09:13:22.618Z,98.89
2018-12-03T09:16:00.828Z,99.07
2018-12-03T09:18:35.370Z,99.26
2018-12-03T09:21:10.449Z,98.71
2018-12-03T09:23:41.986Z,98.26
2018-12-03T09:26:13.087Z,98.52
2018-12-03T09:28:43.807Z,98.10
2018-12-03T09:31:24.607Z,98.14
2018-12-03T09:34:01.390Z,97.82
2018-12-03T09:36:32.226Z,97.30
2018-12-03T09:39:14.188Z,97.17
2018-12-03T09:41:45.380Z,97.80
2018-12-03T09:44:16.193Z,97.34
2018-12-03T09:46:46.893Z,97.77
2018-12-03T09:49:17.580Z,97.28
2018-12-03T09:51:48.296Z,96.72
2018-12-03T09:54:19.008Z,96.32
2018-12-03T09:56:51.303Z,96.41
2018-12-03T09:59:23.973Z,95.55
2018-12-03T10:02:00.336Z,95.11
2018-12-03T10:04:41.958Z,94.51
2018-12-03T10:07:19.881Z,94.48
2018-12-03T10:09:50.643Z,93.41
2018-12-03T10:12:21.367Z,93.67
2018-12-03T10:14:52.064Z,94.01
2018-12-03T10:17:22.731Z,93.29
2018-12-03T10:19:53.537Z,93.44
2018-12-03T10:22:24.247Z,93.02
2018-12-03T10:24:54.913Z,92.56
2018-12-03T10:27:25.632Z,91.95
2018-12-03T10:29:56.743Z,90.24
2018-12-03T10:32:27.584Z,90.30
2018-12-03T10:34:58.408Z,89.05
2018-12-03T10:37:29.225Z,88.50
2018-12-03T10:39:59.968Z,87.27
2018-12-03T10:42:30.930Z,87.00
2018-12-03T10:45:01.655Z,86.33
2018-12-03T10:47:32.328Z,87.29
2018-12-03T10:50:07.145Z,85.61
2018-12-03T10:52:37.871Z,85.94
2018-12-03T10:55:10.763Z,86.29
2018-12-03T10:57:42.526Z,85.67
2018-12-03T11:00:34.681Z,85.53
2018-12-03T11:03:34.193Z,84.55
2018-12-03T11:06:18.953Z,83.08
2018-12-03T11:08:50.323Z,85.50
2018-12-03T11:11:21.133Z,87.02
2018-12-03T11:13:51.825Z,86.72
2018-12-03T11:16:33.028Z,85.86
2018-12-03T11:19:03.759Z,87.49
2018-12-03T11:21:34.498Z,87.87
2018-12-03T11:24:05.740Z,89.44
2018-12-03T11:26:39.238Z,89.11
2018-12-03T11:29:10.893Z,85.89
2018-12-03T11:31:41.638Z,86.22
2018-12-03T11:34:12.432Z,86.29
2018-12-03T11:36:48.318Z,84.97
2018-12-03T11:39:24.097Z,81.16
2018-12-03T11:42:05.381Z,70.64
2018-12-03T11:44:36.103Z,70.29
2018-12-03T11:47:06.937Z,67.56
2018-12-03T11:49:37.693Z,65.58
2018-12-03T11:52:08.996Z,72.46
2018-12-03T11:54:39.689Z,76.92
2018-12-03T11:57:10.527Z,75.53
2018-12-03T11:59:41.309Z,73.81
2018-12-03T12:02:12.082Z,74.18
2018-12-03T12:04:42.780Z,77.94
2018-12-03T12:07:13.515Z,77.75
2018-12-03T12:09:44.539Z,75.52
2018-12-03T12:12:15.281Z,78.72
2018-12-03T12:14:46.007Z,80.54
2018-12-03T12:17:16.816Z,80.11
2018-12-03T12:19:47.528Z,80.61
2018-12-03T12:22:18.632Z,80.71
2018-12-03T12:24:49.354Z,80.44
2018-12-03T12:27:20.146Z,80.43
2018-12-03T12:29:50.836Z,78.69
2018-12-03T12:32:24.482Z,72.96
2018-12-03T12:34:55.219Z,75.27
2018-12-03T12:37:26.038Z,77.10
2018-12-03T12:39:56.871Z,76.72
2018-12-03T12:42:31.709Z,77.30
2018-12-03T12:45:00.156Z,78.07
2018-12-03T12:47:30.864Z,78.28
2018-12-03T12:50:01.620Z,79.09
2018-12-03T12:52:32.406Z,79.69
2018-12-03T12:55:03.070Z,79.22
2018-12-03T12:57:33.810Z,79.63
2018-12-03T13:00:04.892Z,80.37
2018-12-03T13:02:35.585Z,80.21
2018-12-03T13:05:06.412Z,80.25
2018-12-03T13:07:37.148Z,80.56
2018-12-03T13:10:16.635Z,80.85
2018-12-03T13:12:49.991Z,80.89
2018-12-03T13:15:20.713Z,81.56
2018-12-03T13:17:51.420Z,81.66
2018-12-03T13:20:22.160Z,82.41
2018-12-03T13:22:52.876Z,82.99
2018-12-03T13:25:23.702Z,82.46
2018-12-03T13:27:55.679Z,82.19
2018-12-03T13:30:26.507Z,83.05
2018-12-03T13:32:57.311Z,83.29
2018-12-03T13:35:29.234Z,83.29
2018-12-03T13:38:00.098Z,83.50
2018-12-03T13:40:30.814Z,82.95
2018-12-03T13:43:01.510Z,83.00
2018-12-03T13:45:32.323Z,83.09
2018-12-03T13:48:03.478Z,83.36
2018-12-03T13:50:34.204Z,83.34
2018-12-03T13:53:05.045Z,83.18
2018-12-03T13:55:35.752Z,83.25
2018-12-03T13:58:06.745Z,83.29
2018-12-03T14:00:37.580Z,83.20
2018-12-03T14:03:22.891Z,83.32
2018-12-03T14:06:19.779Z,83.23
2018-12-03T14:09:40.470Z,83.28
2018-12-03T14:12:31.349Z,83.61
2018-12-03T14:15:15.716Z,83.83
2018-12-03T14:18:22.409Z,83.73
2018-12-03T14:20:54.544Z,83.81
2018-12-03T14:23:32.094Z,83.87
2018-12-03T14:26:02.898Z,83.92
2018-12-03T14:28:33.627Z,84.24
2018-12-03T14:31:04.345Z,84.04
2018-12-03T14:33:35.062Z,84.12
2018-12-03T14:36:05.787Z,84.26
2018-12-03T14:38:36.470Z,84.41
2018-12-03T14:41:07.228Z,84.37
2018-12-03T14:43:37.933Z,85.18
2018-12-03T14:46:08.640Z,85.40
2018-12-03T14:48:39.317Z,85.54
2018-12-03T14:51:10.111Z,87.17
2018-12-03T14:53:40.898Z,85.51
2018-12-03T14:56:11.601Z,84.78
2018-12-03T14:58:42.446Z,85.25
2018-12-03T15:01:13.168Z,86.18
2018-12-03T15:03:43.921Z,85.70
2018-12-03T15:06:14.636Z,86.16
2018-12-03T15:08:45.450Z,86.60
2018-12-03T15:11:20.445Z,85.98
2018-12-03T15:13:51.196Z,86.21
2018-12-03T15:16:21.949Z,87.09
2018-12-03T15:18:52.678Z,86.88
2018-12-03T15:21:23.625Z,87.33
2018-12-03T15:23:54.321Z,86.76
2018-12-03T15:26:25.142Z,87.24
2018-12-03T15:28:55.889Z,86.77
2018-12-03T15:31:26.672Z,85.06
2018-12-03T15:33:57.432Z,85.71
2018-12-03T15:36:28.152Z,85.14
2018-12-03T15:38:58.963Z,86.20
2018-12-03T15:41:29.677Z,85.30
2018-12-03T15:44:00.361Z,85.39
2018-12-03T15:46:31.160Z,85.59
2018-12-03T15:49:02.018Z,85.72
2018-12-03T15:51:32.875Z,85.79
2018-12-03T15:54:03.773Z,85.77
2018-12-03T15:56:34.548Z,85.60
2018-12-03T15:59:06.396Z,86.60
2018-12-03T16:01:37.227Z,86.89
2018-12-03T16:04:07.959Z,87.41
2018-12-03T16:06:38.792Z,87.64
2018-12-03T16:09:12.315Z,88.50
2018-12-03T16:11:43.094Z,87.86
2018-12-03T16:14:13.779Z,88.72
2018-12-03T16:16:44.486Z,88.21
2018-12-03T16:19:15.321Z,87.91
2018-12-03T16:21:46.039Z,88.60
2018-12-03T16:24:17.044Z,88.37
2018-12-03T16:26:47.779Z,88.46
2018-12-03T16:29:18.469Z,88.46
2018-12-03T16:31:49.263Z,89.39
2018-12-03T16:34:19.997Z,89.94
2018-12-03T16:36:50.664Z,89.52
2018-12-03T16:39:21.374Z,89.89
2018-12-03T16:41:52.177Z,89.88
2018-12-03T16:44:22.954Z,89.21
2018-12-03T16:46:53.649Z,89.19
2018-12-03T16:49:24.327Z,89.83
2018-12-03T16:51:55.022Z,90.04
2018-12-03T16:54:25.803Z,89.31
2018-12-03T16:56:56.560Z,89.61
2018-12-03T16:59:27.348Z,89.82
2018-12-03T17:01:58.108Z,89.37
2018-12-03T17:04:28.832Z,89.10
2018-12-03T17:06:59.544Z,89.69
2018-12-03T17:09:30.290Z,89.48
2018-12-03T17:12:01.049Z,88.76
2018-12-03T17:14:31.775Z,89.15
2018-12-03T17:17:02.533Z,88.69
2018-12-03T17:19:33.326Z,87.50
2018-12-03T17:22:16.849Z,87.78
2018-12-03T17:24:48.614Z,87.59
2018-12-03T17:27:19.353Z,88.00
2018-12-03T17:29:50.186Z,87.96
2018-12-03T17:32:21.112Z,87.43
2018-12-03T17:34:51.868Z,88.02
2018-12-03T17:37:22.734Z,87.02
2018-12-03T17:39:53.465Z,86.37
2018-12-03T17:42:24.358Z,86.93
2018-12-03T17:44:55.112Z,87.08
2018-12-03T17:47:25.836Z,87.01
2018-12-03T17:49:56.525Z,86.96
2018-12-03T17:52:27.243Z,86.44
2018-12-03T17:54:57.963Z,86.65
2018-12-03T17:57:29.090Z,86.57
2018-12-03T17:59:59.972Z,86.93
2018-12-03T18:02:30.721Z,88.00
2018-12-03T18:05:01.511Z,87.76
2018-12-03T18:07:32.492Z,88.26
2018-12-03T18:10:03.244Z,88.00
2018-12-03T18:12:34.112Z,89.08
2018-12-03T18:15:05.197Z,89.93
2018-12-03T18:17:35.906Z,91.94
2018-12-03T18:23:31.287Z,64.90
2018-12-03T18:26:00.536Z,64.72
2018-12-03T18:28:30.862Z,64.32
2018-12-03T18:30:59.961Z,64.66
2018-12-03T18:33:29.532Z,63.36
2018-12-03T18:35:58.911Z,62.49
2018-12-03T18:38:28.241Z,61.75
2018-12-03T18:41:03.163Z,61.87
2018-12-03T18:43:29.160Z,61.23
2018-12-03T18:45:58.532Z,61.09
2018-12-03T18:48:27.904Z,60.84
2018-12-03T18:50:57.292Z,60.82
2018-12-03T18:53:28.129Z,60.18
2018-12-03T18:55:57.534Z,59.07
2018-12-03T18:58:36.810Z,58.95
2018-12-03T19:01:06.262Z,58.62
2018-12-03T19:03:35.682Z,57.69
2018-12-03T19:06:05.796Z,58.83
2018-12-03T19:08:35.284Z,57.82
2018-12-03T19:11:04.818Z,58.45
2018-12-03T19:13:34.573Z,58.25
2018-12-03T19:16:03.992Z,59.09
2018-12-03T19:18:33.339Z,58.39
2018-12-03T19:21:02.855Z,57.79
2018-12-03T19:23:32.238Z,58.64
2018-12-03T19:26:02.904Z,58.64
2018-12-03T19:28:32.416Z,58.32
2018-12-03T19:31:01.816Z,58.65
2018-12-03T19:33:31.147Z,58.00
2018-12-03T19:36:00.469Z,58.73
2018-12-03T19:38:29.808Z,57.62
2018-12-03T19:40:59.145Z,57.46
2018-12-03T19:43:28.972Z,57.89
2018-12-03T19:45:58.388Z,57.16
2018-12-03T19:48:27.715Z,56.98
2018-12-03T19:50:57.063Z,57.57
2018-12-03T19:53:26.416Z,56.44
2018-12-03T19:55:55.767Z,56.53
2018-12-03T19:58:29.517Z,55.99
2018-12-03T20:00:59.138Z,56.71
2018-12-03T20:03:28.533Z,55.65
2018-12-03T20:05:57.972Z,55.33
2018-12-03T20:08:27.350Z,54.88
2018-12-03T20:10:56.779Z,54.86
2018-12-03T20:13:26.466Z,55.93
2018-12-03T20:15:55.992Z,56.31
2018-12-03T20:18:25.362Z,57.42
2018-12-03T20:20:58.653Z,58.81
2018-12-03T20:23:33.265Z,58.35
2018-12-03T20:26:38.430Z,59.78
2018-12-03T20:29:45.828Z,70.92
2018-12-03T20:32:24.640Z,67.18
2018-12-03T20:35:02.626Z,69.32
2018-12-03T20:37:46.335Z,74.19
2018-12-03T20:40:28.186Z,71.21
2018-12-03T20:43:08.326Z,74.84
2018-12-03T20:45:50.628Z,76.85
2018-12-03T20:48:25.081Z,77.10
2018-12-03T20:50:59.661Z,77.81
2018-12-03T20:53:32.960Z,78.09
2018-12-03T20:56:04.516Z,77.79
2018-12-03T20:58:33.984Z,78.99
2018-12-03T21:01:03.322Z,78.09
2018-12-03T21:03:32.731Z,77.86
2018-12-03T21:06:02.145Z,76.81
2018-12-03T21:08:31.559Z,77.80
2018-12-03T21:11:00.914Z,76.48
2018-12-03T21:13:31.108Z,77.03
2018-12-03T21:16:02.212Z,76.80
2018-12-03T21:18:31.854Z,75.59
2018-12-03T21:21:02.644Z,76.39
2018-12-03T21:23:31.982Z,76.07
2018-12-03T21:26:01.320Z,75.32
2018-12-03T21:28:30.730Z,75.41
2018-12-03T21:31:06.875Z,73.59
2018-12-03T21:33:36.500Z,73.91
2018-12-03T21:36:06.095Z,73.93
2018-12-03T21:38:35.732Z,72.14
2018-12-03T21:41:05.064Z,72.82
2018-12-03T21:43:34.447Z,72.81
2018-12-03T21:46:03.856Z,72.43
2018-12-03T21:48:33.272Z,72.50
2018-12-03T21:51:02.671Z,72.52
2018-12-03T21:53:32.074Z,72.14
2018-12-03T21:56:01.410Z,73.36
2018-12-03T21:58:30.768Z,72.09
2018-12-03T22:01:00.157Z,71.15
2018-12-03T22:03:29.479Z,73.27
2018-12-03T22:05:58.800Z,75.67
2018-12-03T22:08:28.182Z,76.08
2018-12-03T22:10:57.497Z,77.70
2018-12-03T22:13:26.812Z,77.59
2018-12-03T22:15:56.365Z,76.86
2018-12-03T22:18:25.923Z,76.95
2018-12-03T22:20:55.274Z,76.45
2018-12-03T22:23:24.739Z,76.32
2018-12-03T22:25:54.056Z,75.83
2018-12-03T22:28:23.462Z,74.88
2018-12-03T22:30:52.923Z,75.87
2018-12-03T22:33:22.313Z,73.62
2018-12-03T22:35:51.721Z,73.12
2018-12-03T22:38:21.184Z,73.64
2018-12-03T22:40:50.626Z,72.62
2018-12-03T22:43:20.038Z,71.93
2018-12-03T22:45:49.491Z,72.21
2018-12-03T22:48:18.832Z,72.09
2018-12-03T22:50:48.183Z,71.92
2018-12-03T22:53:17.666Z,70.69
2018-12-03T22:55:47.537Z,70.24
2018-12-03T22:58:16.977Z,71.16
2018-12-03T23:00:50.760Z,70.17
2018-12-03T23:03:20.111Z,68.83
2018-12-03T23:05:49.474Z,68.36
2018-12-03T23:08:18.957Z,69.00
2018-12-03T23:10:48.631Z,67.53
2018-12-03T23:13:17.996Z,68.58
2018-12-03T23:15:47.337Z,68.38
2018-12-03T23:18:17.073Z,66.68
2018-12-03T23:20:46.439Z,67.34
2018-12-03T23:23:15.907Z,66.87
2018-12-03T23:25:45.300Z,67.09
2018-12-03T23:28:14.671Z,66.54
2018-12-03T23:30:44.003Z,66.57
2018-12-03T23:33:13.337Z,67.07
2018-12-03T23:35:42.673Z,65.94
2018-12-03T23:38:12.126Z,66.60
2018-12-03T23:40:41.839Z,65.93
2018-12-03T23:43:11.128Z,66.95
2018-12-03T23:45:40.577Z,66.45
2018-12-03T23:48:10.027Z,65.96
2018-12-03T23:50:39.425Z,66.18
2018-12-03T23:53:08.853Z,67.66
2018-12-03T23:55:38.278Z,66.42
2018-12-03T23:58:07.606Z,68.08
